Aérodrome :
LOGIN :

S'inscrire | Disclaimer

   EN    FR    IT 

 










Légende :    VFR   VFR Marginal   IFR   IFR Intensif   IFR Très Intensif
Visi : 
Plafond : 
>= 8 km
>= 3000ft
5 à 8 km
1000 à 3000 ft
1500m à 5 km
500 à 1000 ft
800 à 1500m
200 à 500 ft
< 800m
< 200 ft
Symboles :   Orages  Brouillard  Fortes neiges  Fortes précipitations  Vent > 20 kt
SIGMETs :   Divers  Orages  Givrage  Turbulence  Onde Orograph.  Cendres Volcan.







- Altitude de l'aérodrome : 82 ft
- Code IATA : QIE
- Voir les cartes d'approche


LFMI - Istres

DERNIER METAR :
  • 231000Z AUTO 14023KT 9999 BKN016/// BKN028/// OVC036/// ///TCU 16/12 Q1010 TEMPO 13020G35KT 2500 TSRA BKN020CB

METARs EXPIRÉS :
  • 230930Z AUTO 14018KT 9999 BKN018 BKN024 BKN043 16/12 Q1010 TEMPO 13020G35KT 2500 TSRA BKN020CB
  • 230900Z AUTO 13021KT 9999 BKN018 BKN028 BKN043 16/11 Q1010 TEMPO 13020G35KT 2500 TSRA BKN020CB
  • 230830Z AUTO 12019KT 9999 BKN018 BKN024 OVC035 16/11 Q1010 TEMPO 13020G35KT 2500 TSRA BKN020CB
  • 230800Z AUTO 12019KT 9999 BKN017 BKN022 OVC027 15/11 Q1010 TEMPO 14022G32KT SHRA SCT010 BKN015TCU
  • 230730Z AUTO 11014KT 9999 BKN015 BKN023 OVC033 15/12 Q1010 TEMPO 14022G32KT SHRA SCT010 BKN015TCU

TAF TAF LFMI
Valide du 23 à 09h jusqu'au 24 à 09h UTC


230800Z 2309/2409 13015KT 9999 BKN020 BKN040
TEMPO 2309/2324 13020G35KT 2500 SHRA BKN010 SCT020CB BKN040
PROB40
TEMPO 2309/2321 2500 TSRA BKN020CB
TEMPO 2400/2409 13010KT 5000 RA SCT020 BKN040
Pas de NOTAMs connus pour ce terrain.
4 SIGMETs publiés pour la FIR Marseille (LFMM) :
 
Orages noyés dans la masse
LFMM SIGMET 8 VALID 231000/231200 LFPW
LFMM MARSEILLE FIR/UIR EMBD TS OBS WI N4330 E00245 - N4545 E00300 - N4545 E00445 - N4415 E00430 - N4300 E00315 TOP FL320 STNR NC=
Turbulence forte
LFMM SIGMET 7 VALID 231000/231300 LFPW
LFMM MARSEILLE FIR/UIR SEV TURB FCST WI N4345 E00245 - N4515 E00245 - N4600 E00345 - N4515 E00545 - N4345 E00530 SFC/FL060 STNR NC=
Orages noyés dans la masse
LFMM SIGMET 6 VALID 230825/231000 LFPW
LFMM MARSEILLE FIR/UIR EMBD TS OBS WI N4330 E00245 - N4600 E00300 - N4600 E00445 - N4430 E00430 - N4300 E00330 TOP FL320 STNR NC=
Turbulence forte
LFMM SIGMET 3 VALID 230700/231000 LFPW
LFMM MARSEILLE FIR/UIR SEV TURB FCST WI N4330 E00245 - N4545 E00300 - N4545 E00530 - N4330 E00630 - N4400 E00415 SFC/FL060 STNR INTSF=



MET'MAP, la Météo Aéronautique d'un coup d'oeil ! - Copyright ORBIFLY Décembre 2007 - Disclaimer

ORBIFLY MET'MAP TEAM :

Programmation & Développement : Alexandra Zaïnal
Conception & Développement : Baudouin d'Aumeries
Co-Programmation & Développement : Marc-Olivier Méhu
Soutien technique & logistique : Manuel Goepfert

Contact : metmap@orbifly.com




SOURCES & CREDITS :

   NOAA